Chachapoyas, Peru
Current Conditions -  °F | °C
As of 6:00 PM on Tuesday 25 Nov 2014 (Local Time) from SPJR Reporting Station
Broken Clouds Broken Clouds  
Wind Chill: 64°   Ceiling: 4300
Heat Index: 64°   Visibility: 6mi
Dew Point: 52°   Wind: 6mph
Humidity: 64%   Direction: 20°NNE
Pressure: 30.27"   Gusts: NA
Location:  6.23°S, 77.87°W
Report Text: SPJR 252300Z 02005KT 9999 SCT030 BKN043 18/11 Q1025 RMK BIRD HAZARD RWY 16/34 PP000
Loading
Personal Weather Stations






























Interactive Weather Map New forecast layout! Learn more

10-Day Weather Forecast

Advertisements
Track Severe Weather on mobile